Time;durP1;ratioP1;P1;durP2;ratioP2;P2;SDS_P1;SDS_P2;PMS_P1;PMS_P2;Temp;Humidity;BMP_temperature;BMP_pressure;BME280_temperature;BME280_humidity;BME280_pressure;Samples;Min_cycle;Max_cycle;Signal;HPM_P1;HPM_P2
2022/03/16 00:02:26;;;;;;;34.33;11.90;;;;;;;-5.34;100.00;101434.86;1592157;90;21620;-70
2022/03/16 00:04:55;;;;;;;33.57;11.53;;;;;;;-5.34;100.00;101433.55;1611763;89;21558;-69
2022/03/16 00:07:22;;;;;;;22.10;8.97;;;;;;;-5.31;100.00;101431.73;1592103;89;21104;-71
2022/03/16 00:09:50;;;;;;;18.57;6.53;;;;;;;-5.32;100.00;101421.65;1592034;90;21089;-70
2022/03/16 00:12:18;;;;;;;18.70;7.33;;;;;;;-5.33;100.00;101425.17;1616743;88;21112;-70
2022/03/16 00:14:46;;;;;;;33.87;11.63;;;;;;;-5.38;100.00;101423.98;1611801;88;21103;-70
2022/03/16 00:17:13;;;;;;;40.03;13.87;;;;;;;-5.39;100.00;101424.02;1588014;90;21515;-71
2022/03/16 00:19:41;;;;;;;38.60;13.00;;;;;;;-5.44;100.00;101421.47;1593305;90;21046;-70
2022/03/16 00:22:09;;;;;;;19.33;7.83;;;;;;;-5.47;100.00;101421.56;1672371;85;21070;-70
2022/03/16 00:24:36;;;;;;;38.07;13.13;;;;;;;-5.49;100.00;101423.80;1656979;86;21074;-70
2022/03/16 00:27:04;;;;;;;114.10;34.03;;;;;;;-5.54;100.00;101419.97;1657291;86;21121;-69
2022/03/16 00:29:32;;;;;;;178.57;50.00;;;;;;;-5.57;100.00;101419.58;1672764;85;21098;-70
2022/03/16 00:31:59;;;;;;;185.03;51.90;;;;;;;-5.57;100.00;101413.45;1657366;86;21054;-70
2022/03/16 00:34:26;;;;;;;234.90;64.10;;;;;;;-5.59;100.00;101409.52;1672747;86;21097;-70
2022/03/16 00:36:54;;;;;;;282.07;79.07;;;;;;;-5.60;100.00;101411.73;1672841;86;21011;-70
2022/03/16 00:39:21;;;;;;;249.83;66.80;;;;;;;-5.58;100.00;101410.38;1672886;85;21077;-70
2022/03/16 00:41:48;;;;;;;278.73;74.77;;;;;;;-5.62;100.00;101398.19;1675040;84;21206;-71
2022/03/16 00:44:16;;;;;;;315.07;86.20;;;;;;;-5.64;100.00;101398.67;1673863;86;21083;-70
2022/03/16 00:46:45;;;;;;;236.97;62.53;;;;;;;-5.70;100.00;101403.64;1672971;85;21082;-70
2022/03/16 00:49:13;;;;;;;203.27;53.90;;;;;;;-5.76;100.00;101402.44;1657102;86;21548;-69
2022/03/16 00:51:40;;;;;;;141.97;43.50;;;;;;;-5.84;100.00;101403.94;1673018;86;21058;-71
2022/03/16 00:54:09;;;;;;;194.93;59.87;;;;;;;-5.91;100.00;101404.51;1657230;86;21066;-70
2022/03/16 00:56:37;;;;;;;70.63;26.33;;;;;;;-5.94;100.00;101401.93;1679789;85;21799;-71
2022/03/16 00:59:05;;;;;;;32.70;13.57;;;;;;;-5.93;100.00;101405.45;1672599;85;21050;-70
2022/03/16 01:01:34;;;;;;;24.43;9.90;;;;;;;-5.93;100.00;101398.41;1672908;85;21090;-70
2022/03/16 01:04:01;;;;;;;36.07;12.33;;;;;;;-5.92;100.00;101402.76;1672786;85;21093;-70
2022/03/16 01:06:29;;;;;;;28.60;9.93;;;;;;;-5.91;100.00;101401.88;1673007;86;21054;-70
2022/03/16 01:08:56;;;;;;;17.73;7.80;;;;;;;-5.91;100.00;101404.51;1672684;85;21069;-70
2022/03/16 01:11:23;;;;;;;16.17;8.17;;;;;;;-5.87;100.00;101400.04;1672891;85;21074;-70
2022/03/16 01:13:51;;;;;;;18.23;8.17;;;;;;;-5.82;100.00;101392.91;1657159;86;21055;-69
2022/03/16 01:16:19;;;;;;;20.13;11.73;;;;;;;-5.76;100.00;101393.22;1678327;85;21040;-69
2022/03/16 01:18:47;;;;;;;21.93;12.13;;;;;;;-5.72;100.00;101401.46;1663900;85;21079;-69
2022/03/16 01:21:14;;;;;;;17.73;8.43;;;;;;;-5.69;100.00;101401.40;1670502;86;21544;-70
2022/03/16 01:23:42;;;;;;;20.87;10.50;;;;;;;-5.66;100.00;101393.44;1641643;87;21033;-69
2022/03/16 01:26:10;;;;;;;27.47;10.30;;;;;;;-5.67;100.00;101393.00;1642305;87;21029;-70
2022/03/16 01:28:37;;;;;;;29.83;13.20;;;;;;;-5.68;100.00;101393.03;1641956;87;21095;-70
2022/03/16 01:31:04;;;;;;;22.87;10.10;;;;;;;-5.70;100.00;101390.46;1642003;87;21099;-70
2022/03/16 01:33:33;;;;;;;23.10;8.43;;;;;;;-5.70;100.00;101385.19;1642049;87;21084;-70
2022/03/16 01:36:00;;;;;;;15.63;6.83;;;;;;;-5.72;100.00;101380.38;1670733;86;21053;-70
2022/03/16 01:38:30;;;;;;;27.50;8.23;;;;;;;-5.74;100.00;101374.28;1670599;86;21054;-70
2022/03/16 01:40:57;;;;;;;39.30;10.50;;;;;;;-5.75;100.00;101378.70;1670712;86;21072;-69
2022/03/16 01:43:25;;;;;;;18.47;7.47;;;;;;;-5.77;100.00;101374.34;1670528;86;21066;-70
2022/03/16 01:45:52;;;;;;;20.03;7.87;;;;;;;-5.80;100.00;101375.75;1670805;86;21065;-70
2022/03/16 01:48:19;;;;;;;16.33;7.37;;;;;;;-5.81;100.00;101377.95;1670594;85;21046;-70
2022/03/16 01:50:48;;;;;;;14.40;7.53;;;;;;;-5.81;100.00;101381.91;1670820;85;21077;-70
2022/03/16 01:53:16;;;;;;;14.93;6.03;;;;;;;-5.83;100.00;101379.30;1631931;88;21086;-70
2022/03/16 01:55:43;;;;;;;13.63;6.13;;;;;;;-5.82;100.00;101381.52;1666600;86;21085;-70
2022/03/16 01:58:10;;;;;;;10.30;5.87;;;;;;;-5.81;100.00;101379.27;1666558;86;21077;-70
2022/03/16 02:00:41;;;;;;;11.20;5.80;;;;;;;-5.81;100.00;101374.86;1667134;86;21101;-70
2022/03/16 02:03:08;;;;;;;8.20;5.10;;;;;;;-5.80;100.00;101380.56;1644128;86;21082;-69
2022/03/16 02:05:37;;;;;;;14.27;5.20;;;;;;;-5.81;100.00;101374.86;1644372;87;21070;-70
2022/03/16 02:08:05;;;;;;;13.30;5.50;;;;;;;-5.81;100.00;101376.18;1643203;86;21135;-70
2022/03/16 02:10:34;;;;;;;19.90;6.50;;;;;;;-5.83;100.00;101371.41;1644428;87;21567;-69
2022/03/16 02:13:03;;;;;;;16.97;5.77;;;;;;;-5.85;100.00;101369.72;1644328;87;21150;-69
2022/03/16 02:15:32;;;;;;;11.70;5.30;;;;;;;-5.88;100.00;101367.14;1644773;86;21059;-70
2022/03/16 02:18:00;;;;;;;12.63;5.00;;;;;;;-5.89;100.00;101362.79;1671696;86;21105;-69
2022/03/16 02:20:29;;;;;;;10.10;5.40;;;;;;;-5.91;100.00;101372.05;1642106;86;21594;-70
2022/03/16 02:22:59;;;;;;;10.97;5.10;;;;;;;-5.92;100.00;101368.52;1657391;87;21046;-70
2022/03/16 02:25:27;;;;;;;15.77;6.40;;;;;;;-5.92;100.00;101375.10;1621052;87;21070;-70
2022/03/16 02:27:55;;;;;;;33.10;16.27;;;;;;;-5.91;100.00;101370.27;1659127;87;21142;-69
2022/03/16 02:30:23;;;;;;;18.07;7.37;;;;;;;-5.90;100.00;101371.12;1623493;85;21594;-69
2022/03/16 02:32:50;;;;;;;13.97;6.23;;;;;;;-5.91;100.00;101375.53;1621722;87;21066;-69
2022/03/16 02:35:19;;;;;;;14.27;7.23;;;;;;;-5.92;100.00;101383.00;1657509;86;21413;-71
2022/03/16 02:37:48;;;;;;;15.57;6.10;;;;;;;-5.93;100.00;101373.39;1621688;87;21117;-69
2022/03/16 02:40:20;;;;;;;17.07;7.67;;;;;;;-5.93;100.00;101378.66;1657244;87;21129;-70
2022/03/16 02:42:48;;;;;;;14.47;6.97;;;;;;;-5.93;100.00;101374.70;1657438;86;21022;-70
2022/03/16 02:45:15;;;;;;;17.70;8.07;;;;;;;-5.91;100.00;101376.84;1657386;86;21543;-70
2022/03/16 02:47:43;;;;;;;19.00;7.70;;;;;;;-5.92;100.00;101371.16;1621201;87;21023;-70
2022/03/16 02:50:12;;;;;;;20.40;9.23;;;;;;;-5.94;100.00;101368.15;1650029;86;21131;-69
2022/03/16 02:52:40;;;;;;;19.73;7.30;;;;;;;-5.96;100.00;101371.30;1644174;87;21551;-70
2022/03/16 02:55:08;;;;;;;14.80;7.20;;;;;;;-5.98;100.00;101367.38;1644269;87;21030;-70
2022/03/16 02:57:37;;;;;;;17.87;7.97;;;;;;;-6.00;100.00;101365.23;1593857;89;21630;-70
2022/03/16 03:00:07;;;;;;;16.67;8.10;;;;;;;-6.01;100.00;101366.13;1638580;86;21082;-70
2022/03/16 03:02:37;;;;;;;16.63;8.17;;;;;;;-6.02;100.00;101361.77;1655478;86;21122;-70
2022/03/16 03:05:07;;;;;;;21.17;9.70;;;;;;;-6.03;100.00;101363.98;1717989;83;21548;-69
2022/03/16 03:07:35;;;;;;;57.87;22.77;;;;;;;-6.05;100.00;101360.52;1685488;83;21025;-69
2022/03/16 03:10:05;;;;;;;26.10;12.00;;;;;;;-6.07;100.00;101359.69;1718090;83;21054;-70
2022/03/16 03:12:35;;;;;;;25.10;11.00;;;;;;;-6.09;100.00;101360.60;1718312;83;21023;-69
2022/03/16 03:15:10;;;;;;;17.87;8.27;;;;;;;-6.12;100.00;101358.45;1689782;83;21038;-70
2022/03/16 03:17:37;;;;;;;19.23;10.27;;;;;;;-6.15;100.00;101357.20;1691962;83;21508;-70
2022/03/16 03:20:06;;;;;;;18.20;8.57;;;;;;;-6.14;100.00;101355.45;1657521;85;21065;-69
2022/03/16 03:22:33;;;;;;;13.33;6.00;;;;;;;-6.16;100.00;101357.22;1685053;83;21004;-71
2022/03/16 03:25:01;;;;;;;12.07;6.47;;;;;;;-6.19;100.00;101356.85;1684114;85;21087;-69
2022/03/16 03:27:30;;;;;;;9.70;5.57;;;;;;;-6.21;100.00;101354.70;1684035;85;21148;-70
2022/03/16 03:29:58;;;;;;;10.60;5.43;;;;;;;-6.22;100.00;101356.91;1683985;85;21497;-68
2022/03/16 03:32:25;;;;;;;20.20;7.83;;;;;;;-6.23;100.00;101353.88;1684229;85;21552;-69
2022/03/16 03:34:53;;;;;;;159.47;50.03;;;;;;;-6.24;100.00;101354.77;1642252;85;21068;-70
2022/03/16 03:37:21;;;;;;;252.03;68.40;;;;;;;-6.26;100.00;101354.39;1684266;85;21655;-70
2022/03/16 03:39:49;;;;;;;229.40;63.03;;;;;;;-6.28;100.00;101354.84;1632049;87;21076;-70
2022/03/16 03:42:16;;;;;;;195.13;60.30;;;;;;;-6.27;100.00;101356.59;1664634;85;21076;-70
2022/03/16 03:44:43;;;;;;;157.27;55.33;;;;;;;-6.30;100.00;101358.85;1664376;85;21068;-69
2022/03/16 03:47:10;;;;;;;104.40;43.03;;;;;;;-6.31;100.00;101361.05;1627964;87;21151;-69
2022/03/16 03:49:39;;;;;;;89.93;42.17;;;;;;;-6.32;100.00;101356.67;1664703;85;21580;-71
2022/03/16 03:52:07;;;;;;;65.10;32.73;;;;;;;-6.33;100.00;101363.72;1651186;87;21546;-69
2022/03/16 03:54:35;;;;;;;46.83;20.63;;;;;;;-6.34;100.00;101362.42;1684411;85;21589;-69
2022/03/16 03:57:03;;;;;;;37.27;14.40;;;;;;;-6.36;100.00;101361.59;1651293;87;21123;-69
2022/03/16 03:59:30;;;;;;;35.30;12.33;;;;;;;-6.35;100.00;101362.02;1632468;87;21530;-70
2022/03/16 04:01:57;;;;;;;27.00;10.03;;;;;;;-6.36;100.00;101365.54;1664830;85;21020;-69
2022/03/16 04:04:24;;;;;;;19.47;7.90;;;;;;;-6.37;100.00;101364.69;1651559;86;21422;-69
2022/03/16 04:06:51;;;;;;;16.70;7.07;;;;;;;-6.37;100.00;101362.05;1683924;84;21060;-70
2022/03/16 04:09:19;;;;;;;15.67;6.70;;;;;;;-6.36;100.00;101371.66;1664823;85;21052;-69
2022/03/16 04:11:46;;;;;;;15.13;6.20;;;;;;;-6.36;100.00;101368.17;1664794;85;21103;-70
2022/03/16 04:14:13;;;;;;;12.93;6.60;;;;;;;-6.36;100.00;101366.86;1664712;85;21510;-69
2022/03/16 04:16:41;;;;;;;12.80;6.63;;;;;;;-6.35;100.00;101368.15;1667427;85;21088;-68
2022/03/16 04:19:08;;;;;;;12.53;6.40;;;;;;;-6.34;100.00;101367.27;1634458;87;21510;-69
2022/03/16 04:21:35;;;;;;;11.60;5.90;;;;;;;-6.34;100.00;101367.27;1654058;86;21079;-70
2022/03/16 04:24:02;;;;;;;13.60;6.07;;;;;;;-6.34;100.00;101363.31;1631939;86;21584;-70
2022/03/16 04:26:30;;;;;;;13.07;6.03;;;;;;;-6.33;100.00;101367.66;1658458;86;21545;-70
2022/03/16 04:28:58;;;;;;;13.67;6.07;;;;;;;-6.30;100.00;101367.61;1658405;86;21139;-69
2022/03/16 04:31:25;;;;;;;11.53;5.60;;;;;;;-6.28;100.00;101370.64;1631796;86;21080;-69
2022/03/16 04:33:52;;;;;;;12.27;5.83;;;;;;;-6.26;100.00;101369.73;1658280;86;21075;-69
2022/03/16 04:36:19;;;;;;;15.53;8.67;;;;;;;-6.24;100.00;101370.56;1658659;86;21005;-69
2022/03/16 04:38:47;;;;;;;11.30;6.03;;;;;;;-6.22;100.00;101366.13;1658666;86;21071;-69
2022/03/16 04:41:14;;;;;;;10.10;5.87;;;;;;;-6.17;100.00;101375.25;1631519;86;21040;-69
2022/03/16 04:43:42;;;;;;;12.63;6.67;;;;;;;-6.17;100.00;101376.11;1632478;86;21115;-69
2022/03/16 04:46:09;;;;;;;11.87;6.07;;;;;;;-6.15;100.00;101374.77;1658309;86;21139;-69
2022/03/16 04:48:36;;;;;;;18.57;8.53;;;;;;;-6.13;100.00;101380.41;1658344;86;21115;-69
2022/03/16 04:51:05;;;;;;;13.77;6.33;;;;;;;-6.11;100.00;101372.05;1658551;86;21072;-70
2022/03/16 04:53:34;;;;;;;13.03;5.93;;;;;;;-6.05;100.00;101379.41;1633000;86;21525;-69
2022/03/16 04:56:01;;;;;;;14.60;5.60;;;;;;;-6.03;100.00;101371.02;1631844;86;21071;-69
2022/03/16 04:58:30;;;;;;;10.73;5.27;;;;;;;-6.01;100.00;101376.66;1631781;86;21552;-69
2022/03/16 05:00:57;;;;;;;9.67;5.20;;;;;;;-6.01;100.00;101377.97;1658212;86;21568;-70
2022/03/16 05:03:25;;;;;;;10.30;5.40;;;;;;;-5.98;100.00;101375.74;1658597;86;21621;-69
2022/03/16 05:05:52;;;;;;;11.50;5.50;;;;;;;-5.96;100.00;101377.89;1658667;86;21585;-69
2022/03/16 05:08:19;;;;;;;12.93;6.10;;;;;;;-5.91;100.00;101379.95;1658535;86;21028;-69
2022/03/16 05:10:48;;;;;;;9.80;5.40;;;;;;;-5.82;100.00;101381.05;1632327;86;21537;-70
2022/03/16 05:13:15;;;;;;;9.73;5.33;;;;;;;-5.69;100.00;101381.64;1658413;86;21571;-70
2022/03/16 05:15:42;;;;;;;9.13;5.30;;;;;;;-5.60;100.00;101382.73;1639163;83;21083;-70
2022/03/16 05:18:09;;;;;;;11.30;5.40;;;;;;;-5.51;100.00;101378.16;1696893;83;21058;-69
2022/03/16 05:20:37;;;;;;;13.67;5.40;;;;;;;-5.44;100.00;101387.66;1723276;83;21053;-69
2022/03/16 05:23:04;;;;;;;10.70;5.20;;;;;;;-5.41;100.00;101388.45;1718876;83;21601;-69
2022/03/16 05:25:32;;;;;;;10.23;5.40;;;;;;;-5.32;100.00;101383.88;1717961;83;21089;-70
2022/03/16 05:28:00;;;;;;;8.97;5.20;;;;;;;-5.20;100.00;101382.27;1717894;83;21043;-70
2022/03/16 05:30:27;;;;;;;9.73;5.30;;;;;;;-5.09;100.00;101384.17;1689600;83;21043;-69
2022/03/16 05:33:00;;;;;;;10.33;5.17;;;;;;;-5.02;100.00;101383.11;1717755;83;21059;-69
2022/03/16 05:35:27;;;;;;;9.30;4.90;;;;;;;-4.91;100.00;101379.34;1685164;83;21050;-68
2022/03/16 05:37:54;;;;;;;22.10;12.57;;;;;;;-4.82;100.00;101387.87;1717862;83;21579;-68
2022/03/16 05:40:21;;;;;;;17.60;8.23;;;;;;;-4.69;100.00;101380.95;1718049;83;21049;-69
2022/03/16 05:42:49;;;;;;;12.07;6.30;;;;;;;-4.53;100.00;101389.32;1717823;83;21062;-69
2022/03/16 05:45:16;;;;;;;14.90;6.87;;;;;;;-4.37;100.00;101388.02;1718018;83;21570;-69
2022/03/16 05:47:43;;;;;;;11.97;6.17;;;;;;;-4.22;100.00;101391.52;1689758;83;20979;-70
2022/03/16 05:50:10;;;;;;;10.80;5.43;;;;;;;-4.08;100.00;101392.45;1717862;83;21058;-70
2022/03/16 05:52:38;;;;;;;11.80;5.83;;;;;;;-3.98;100.00;101396.14;1689519;83;21066;-70
2022/03/16 05:55:07;;;;;;;8.37;5.17;;;;;;;-3.88;100.00;101401.58;1718375;83;21070;-69
2022/03/16 05:57:40;;;;;;;21.77;10.23;;;;;;;-3.75;100.00;101400.74;1718002;83;21081;-69
2022/03/16 06:00:14;;;;;;;15.60;7.37;;;;;;;-3.62;100.00;101399.47;1689780;83;21499;-69
2022/03/16 06:02:42;;;;;;;11.97;5.63;;;;;;;-3.50;100.00;101396.45;1677633;85;21050;-70
2022/03/16 06:05:09;;;;;;;9.73;5.20;;;;;;;-3.37;100.00;101405.32;1718194;83;21062;-67
2022/03/16 06:07:38;;;;;;;11.77;5.50;;;;;;;-3.35;100.00;101409.63;1720725;83;21038;-70
2022/03/16 06:10:08;;;;;;;10.20;5.67;;;;;;;-3.34;100.00;101419.78;1689949;83;21098;-70
2022/03/16 06:13:00;;;;;;;8.93;5.20;;;;;;;-3.32;100.00;101434.67;1718063;83;21082;-70
2022/03/16 06:15:30;;;;;;;9.47;5.20;;;;;;;-3.22;100.00;101437.91;1689410;83;21019;-69
2022/03/16 06:17:58;;;;;;;10.37;4.77;;;;;;;-3.16;100.00;101448.28;1650367;86;21538;-70
2022/03/16 06:20:26;;;;;;;9.97;4.10;;;;;;;-3.12;100.00;101450.37;1683851;84;21563;-70
2022/03/16 06:22:53;;;;;;;10.27;4.77;;;;;;;-3.04;100.00;101458.95;1685853;84;21092;-69
2022/03/16 06:25:20;;;;;;;6.73;3.73;;;;;;;-3.00;100.00;101463.69;1683975;85;21626;-70
2022/03/16 06:27:48;;;;;;;8.13;4.30;;;;;;;-2.95;100.00;101460.44;1683827;85;21142;-72
2022/03/16 06:30:16;;;;;;;11.13;4.70;;;;;;;-2.81;100.00;101471.43;1683085;85;21885;-70
2022/03/16 06:32:45;;;;;;;9.93;4.17;;;;;;;-2.63;100.00;101464.66;1683992;85;21064;-70
2022/03/16 06:35:12;;;;;;;7.70;3.73;;;;;;;-2.46;100.00;101468.06;1682332;85;21010;-70
2022/03/16 06:37:39;;;;;;;10.77;5.23;;;;;;;-2.26;100.00;101471.80;1661068;85;21133;-71
2022/03/16 06:40:10;;;;;;;11.90;5.40;;;;;;;-2.13;100.00;101483.69;1667237;85;21542;-71
2022/03/16 06:42:48;;;;;;;18.07;6.60;;;;;;;-2.00;100.00;101477.05;1662120;85;21050;-70
2022/03/16 06:45:17;;;;;;;17.83;7.20;;;;;;;-1.84;100.00;101483.09;1626722;88;21517;-71
2022/03/16 06:47:45;;;;;;;15.43;4.93;;;;;;;-1.75;100.00;101486.75;1623739;88;21072;-71
2022/03/16 06:50:12;;;;;;;12.90;4.97;;;;;;;-1.56;100.00;101497.08;1622192;88;21128;-72
2022/03/16 06:52:40;;;;;;;9.60;4.93;;;;;;;-1.42;100.00;101494.35;1574013;90;21131;-70
2022/03/16 06:55:08;;;;;;;16.90;6.83;;;;;;;-1.34;100.00;101506.41;1590923;89;21258;-70
2022/03/16 06:57:35;;;;;;;10.40;5.33;;;;;;;-1.29;100.00;101510.22;1623668;88;21554;-71
2022/03/16 07:00:06;;;;;;;17.77;6.10;;;;;;;-1.15;100.00;101506.56;1624307;88;21617;-69
2022/03/16 07:02:52;;;;;;;62.13;31.30;;;;;;;-1.02;100.00;101513.58;1626498;88;21535;-66
2022/03/16 07:05:21;;;;;;;23.20;9.53;;;;;;;-0.84;100.00;101514.63;1594849;89;21035;-67
2022/03/16 07:07:48;;;;;;;20.37;8.77;;;;;;;-0.61;100.00;101516.35;1606679;88;21045;-67
2022/03/16 07:10:15;;;;;;;66.67;22.77;;;;;;;-0.40;100.00;101520.38;1631688;88;21092;-67
2022/03/16 07:12:44;;;;;;;26.43;8.97;;;;;;;-0.35;100.00;101516.19;1610795;88;21558;-69
2022/03/16 07:15:11;;;;;;;13.57;5.53;;;;;;;-0.30;100.00;101522.17;1632072;88;21080;-70
2022/03/16 07:17:38;;;;;;;14.73;4.80;;;;;;;-0.20;100.00;101532.83;1632042;88;21529;-70
2022/03/16 07:20:08;;;;;;;25.60;6.93;;;;;;;-0.15;100.00;101530.84;1611367;87;21057;-71
2022/03/16 07:22:36;;;;;;;28.40;8.20;;;;;;;0.08;100.00;101521.00;1622034;87;21123;-69
2022/03/16 07:25:05;;;;;;;36.03;11.23;;;;;;;0.28;100.00;101521.44;1608160;89;21135;-70
2022/03/16 07:27:32;;;;;;;19.87;6.10;;;;;;;0.43;100.00;101524.75;1608696;89;21075;-69
2022/03/16 07:30:00;;;;;;;28.33;9.73;;;;;;;0.69;100.00;101524.89;1608207;89;21106;-68
2022/03/16 07:32:27;;;;;;;20.93;8.67;;;;;;;0.96;100.00;101524.53;1608295;89;21539;-69
2022/03/16 07:34:54;;;;;;;13.33;5.70;;;;;;;1.25;100.00;101532.92;1608386;88;21067;-68
2022/03/16 07:37:22;;;;;;;11.47;4.37;;;;;;;1.42;100.00;101527.63;1591456;89;21019;-69
2022/03/16 07:39:49;;;;;;;8.73;3.70;;;;;;;1.44;100.00;101534.22;1608127;89;21119;-68
2022/03/16 07:42:16;;;;;;;13.93;4.60;;;;;;;1.26;100.00;101534.66;1646058;86;21064;-69
2022/03/16 07:44:43;;;;;;;10.97;4.30;;;;;;;1.20;100.00;101537.12;1692444;83;21548;-70
2022/03/16 07:47:10;;;;;;;9.27;4.03;;;;;;;1.33;100.00;101534.27;1670193;84;21092;-70
2022/03/16 07:49:38;;;;;;;11.93;4.97;;;;;;;1.43;100.00;101545.33;1670554;86;21006;-70
2022/03/16 07:52:07;;;;;;;8.77;3.80;;;;;;;1.43;100.00;101546.66;1641197;86;21539;-69
2022/03/16 07:54:34;;;;;;;8.40;3.93;;;;;;;1.35;100.00;101540.87;1669992;86;21071;-68
2022/03/16 07:57:01;;;;;;;13.87;5.43;;;;;;;1.26;100.00;101542.66;1669395;86;21480;-70
2022/03/16 07:59:28;;;;;;;5.70;3.30;;;;;;;1.25;100.00;101540.91;1640889;86;21029;-70
2022/03/16 08:01:56;;;;;;;7.73;3.90;;;;;;;1.42;100.00;101535.63;1667860;86;21081;-70
2022/03/16 08:04:23;;;;;;;9.40;3.77;;;;;;;1.50;100.00;101540.56;1641472;86;21117;-69
2022/03/16 08:06:50;;;;;;;11.53;4.00;;;;;;;1.49;100.00;101529.53;1668499;85;21006;-69
2022/03/16 08:09:19;;;;;;;10.50;3.70;;;;;;;1.59;100.00;101532.11;1667862;86;21065;-68
2022/03/16 08:11:46;;;;;;;13.67;3.80;;;;;;;1.74;100.00;101531.83;1632203;87;21101;-70
2022/03/16 08:14:13;;;;;;;10.53;3.23;;;;;;;1.89;100.00;101536.39;1658940;86;21034;-70
2022/03/16 08:16:42;;;;;;;12.07;3.80;;;;;;;1.99;100.00;101534.09;1679080;85;21038;-71
2022/03/16 08:19:09;;;;;;;13.90;3.40;;;;;;;2.01;100.00;101527.34;1634661;86;21078;-69
2022/03/16 08:21:36;;;;;;;5.67;2.80;;;;;;;2.18;100.00;101529.12;1655414;86;21516;-70
2022/03/16 08:24:05;;;;;;;5.03;2.83;;;;;;;2.19;100.00;101528.19;1645609;86;21564;-68
2022/03/16 08:26:32;;;;;;;6.67;3.30;;;;;;;2.17;100.00;101528.75;1647752;86;22303;-69
2022/03/16 08:29:00;;;;;;;9.33;3.20;;;;;;;2.18;100.00;101529.12;1673874;85;21061;-70
2022/03/16 08:31:28;;;;;;;13.63;5.53;;;;;;;2.22;100.00;101524.88;1665872;85;21070;-68
2022/03/16 08:33:56;;;;;;;13.50;5.10;;;;;;;2.18;100.00;101529.12;1654780;86;21580;-69
2022/03/16 08:36:23;;;;;;;10.63;3.87;;;;;;;2.17;100.00;101530.94;1674200;85;21046;-68
2022/03/16 08:38:50;;;;;;;16.73;4.27;;;;;;;2.18;100.00;101520.66;1654869;86;21089;-69
2022/03/16 08:41:18;;;;;;;8.73;3.50;;;;;;;2.28;100.00;101522.36;1655001;86;21097;-69
2022/03/16 08:43:46;;;;;;;11.13;4.27;;;;;;;2.22;100.00;101518.21;1654193;86;21544;-68
2022/03/16 08:46:13;;;;;;;9.27;3.67;;;;;;;2.09;100.00;101522.48;1686668;85;21182;-69
2022/03/16 08:48:41;;;;;;;11.40;3.60;;;;;;;2.23;100.00;101520.41;1684139;85;21500;-69
2022/03/16 08:51:10;;;;;;;11.77;3.83;;;;;;;2.38;100.00;101527.60;1684223;85;21061;-69
2022/03/16 08:53:39;;;;;;;11.17;3.87;;;;;;;2.30;100.00;101521.80;1681188;85;21507;-68
2022/03/16 08:56:06;;;;;;;9.27;3.93;;;;;;;2.20;100.00;101517.92;1685760;84;21105;-69
2022/03/16 08:58:35;;;;;;;10.67;3.90;;;;;;;2.09;99.00;101514.48;1675852;84;21034;-68
2022/03/16 09:01:05;;;;;;;9.23;4.40;;;;;;;1.99;100.00;101514.08;1667003;84;21040;-68
2022/03/16 09:03:33;;;;;;;13.80;4.87;;;;;;;1.95;100.00;101520.98;1684099;84;21074;-69
2022/03/16 09:06:00;;;;;;;11.90;3.73;;;;;;;1.85;100.00;101520.12;1673167;85;21007;-69
2022/03/16 09:08:27;;;;;;;16.20;4.10;;;;;;;1.76;100.00;101523.75;1680478;85;21046;-69
2022/03/16 09:10:56;;;;;;;14.60;4.40;;;;;;;1.47;98.12;101518.05;1685784;84;21527;-69
2022/03/16 09:13:24;;;;;;;7.40;3.97;;;;;;;1.14;98.60;101521.45;1673984;84;21044;-70
2022/03/16 09:15:52;;;;;;;11.47;4.43;;;;;;;0.98;100.00;101522.66;1682399;85;21038;-69
2022/03/16 09:18:19;;;;;;;7.60;3.10;;;;;;;0.82;98.55;101528.31;1687452;85;21070;-68
2022/03/16 09:20:46;;;;;;;11.63;3.93;;;;;;;0.56;97.47;101518.39;1687405;84;21058;-68
2022/03/16 09:23:14;;;;;;;14.33;6.43;;;;;;;0.34;97.68;101522.03;1670452;85;21119;-69
2022/03/16 09:25:41;;;;;;;11.83;3.53;;;;;;;0.21;99.26;101526.64;1592236;89;21053;-69
2022/03/16 09:28:09;;;;;;;5.97;3.27;;;;;;;0.26;100.00;101524.64;1649647;87;21045;-68
2022/03/16 09:30:36;;;;;;;9.10;3.20;;;;;;;0.62;100.00;101523.90;1619854;87;21165;-69
2022/03/16 09:33:05;;;;;;;12.77;3.57;;;;;;;1.11;100.00;101518.45;1642804;87;21630;-68
2022/03/16 09:35:34;;;;;;;12.20;3.53;;;;;;;1.80;100.00;101512.83;1649248;87;21543;-69
2022/03/16 09:38:01;;;;;;;9.67;3.13;;;;;;;2.48;100.00;101506.62;1661362;85;21083;-68
2022/03/16 09:40:28;;;;;;;12.57;3.67;;;;;;;2.95;96.58;101516.48;1689283;85;21537;-69
2022/03/16 09:42:56;;;;;;;6.67;2.90;;;;;;;3.21;90.64;101516.84;1713774;83;21556;-68
2022/03/16 09:45:26;;;;;;;14.43;3.60;;;;;;;3.09;85.18;101514.38;1690816;85;21060;-69
2022/03/16 09:47:53;;;;;;;10.17;3.50;;;;;;;2.84;82.41;101515.75;1688049;85;21006;-69
2022/03/16 09:50:20;;;;;;;10.10;3.57;;;;;;;2.47;81.11;101516.42;1687806;85;21081;-70
2022/03/16 09:52:48;;;;;;;7.27;4.03;;;;;;;2.17;81.80;101511.40;1660452;85;21022;-69
2022/03/16 09:55:22;;;;;;;14.07;3.57;;;;;;;2.17;85.16;101513.59;1687776;85;21168;-68
2022/03/16 09:57:49;;;;;;;9.10;3.53;;;;;;;2.26;86.25;101511.76;1687912;85;21101;-66
2022/03/16 10:00:17;;;;;;;11.13;3.53;;;;;;;2.22;83.82;101512.88;1660626;85;21030;-68
2022/03/16 10:02:44;;;;;;;11.03;3.30;;;;;;;1.99;81.39;101515.90;1687988;85;21518;-69
2022/03/16 10:05:11;;;;;;;11.57;3.30;;;;;;;1.66;80.80;101512.19;1660284;85;21086;-68
2022/03/16 10:07:38;;;;;;;17.40;3.63;;;;;;;1.45;82.46;101518.60;1660211;85;21041;-67
2022/03/16 10:15:40;;;;;;;13.40;4.30;;;;;;;1.29;86.16;101510.50;1656195;85;21058;-69
2022/03/16 10:18:07;;;;;;;11.20;5.70;;;;;;;1.44;88.86;101514.23;1628027;87;21082;-69
2022/03/16 10:20:43;;;;;;;12.57;4.80;;;;;;;1.55;90.02;101519.02;1646787;87;21551;-68
2022/03/16 10:23:17;;;;;;;9.90;3.93;;;;;;;1.56;91.83;101509.62;1648166;87;21100;-68
2022/03/16 10:25:46;;;;;;;10.13;4.00;;;;;;;1.63;93.53;101507.03;1632027;87;21044;-69
2022/03/16 10:28:28;;;;;;;5.00;3.20;;;;;;;1.77;93.81;101504.12;1651053;87;21016;-67
2022/03/16 10:31:01;;;;;;;8.87;3.40;;;;;;;1.77;91.21;101501.01;1589470;89;21137;-68
2022/03/16 10:33:32;;;;;;;;;;;;;;;1.61;88.45;101499.59;1589592;89;21098;-70
2022/03/16 10:36:07;;;;;;;16.10;4.10;;;;;;;1.45;87.75;101497.28;1608123;89;20122;-68
2022/03/16 10:38:43;;;;;;;8.73;3.47;;;;;;;1.27;87.86;101499.06;1608028;88;21077;-68
2022/03/16 10:47:18;;;;;;;11.33;4.03;;;;;;;1.56;92.21;101490.07;1587185;89;21109;-68
2022/03/16 10:49:46;;;;;;;9.67;3.60;;;;;;;2.07;88.96;101482.98;1608276;89;21069;-69
2022/03/16 10:52:20;;;;;;;11.50;3.80;;;;;;;2.09;85.00;101481.98;1587244;89;21050;-68
2022/03/16 10:54:48;;;;;;;6.97;3.50;;;;;;;2.02;82.91;101479.70;1587351;89;21127;-69
2022/03/16 10:57:21;;;;;;;14.27;5.20;;;;;;;1.77;80.93;101477.00;1586906;88;21062;-71
2022/03/16 10:59:50;;;;;;;13.67;6.00;;;;;;;1.49;82.07;101486.39;1608119;88;21065;-71
2022/03/16 11:02:19;;;;;;;39.77;13.87;;;;;;;1.35;84.54;101478.68;1566161;89;21073;-69
2022/03/16 11:04:50;;;;;;;26.53;9.97;;;;;;;1.22;86.64;101475.77;1607999;89;21555;-68
2022/03/16 11:07:16;;;;;;;12.67;5.10;;;;;;;1.23;88.30;101482.36;1623780;88;21054;-69
2022/03/16 11:09:44;;;;;;;11.77;5.23;;;;;;;1.27;88.78;101475.08;1613561;87;21034;-70
2022/03/16 11:15:01;;;;;;;11.67;5.13;;;;;;;1.45;88.86;101468.84;1639754;87;21550;-68
2022/03/16 11:17:27;;;;;;;14.20;5.20;;;;;;;1.66;89.19;101458.00;1632318;87;21078;-69
2022/03/16 11:19:55;;;;;;;9.73;4.00;;;;;;;1.87;89.83;101457.36;1631169;88;21034;-70
2022/03/16 11:22:25;;;;;;;10.80;4.23;;;;;;;2.17;88.78;101462.88;1630086;88;21598;-69
2022/03/16 11:25:06;;;;;;;12.23;5.40;;;;;;;2.34;89.27;101459.31;1630779;87;21074;-69
2022/03/16 11:27:51;;;;;;;39.83;23.43;;;;;;;2.53;89.99;101459.15;1648334;86;21119;-69
2022/03/16 11:30:30;;;;;;;10.17;4.63;;;;;;;2.57;88.64;101460.72;1639137;87;21111;-69
2022/03/16 11:33:04;;;;;;;19.77;5.13;;;;;;;2.57;88.88;101454.05;1658144;87;21139;-69